Accueil
METAR-TAF:

METAR-TAF

Aéroports :

Quimper, France

Aéroport de Quimper Cornouaille

latitude: 47-58N, longitude: 004-10W, altitude: 92 m

Observation

Le bulletin a été fait il y a 27 minutes, à 01:30 UTC
Vent 3 kt de ouest/sud-ouest
Température 14°C
Humidité 100%
Pression 1021 hPa
Visibilité 10 km ou plus
pas de nuages en-dessous de 1500 mètres et pas de cumulonimbus.

METAR: LFRQ 240130Z AUTO 25003KT CAVOK 14/14 Q1021

Heure: 03:57 (01:57 UTC)

Prévision

Le bulletin a été fait il y a 8 heures et 57 minutes, à 17:00 UTC
Prévision valable du 23 à 18 UTC au 24 à 03 UTC
Vent 12 kt de ouest
Visibilité 10 km ou plus
Nuages fragmentés à une hauteur de 2000 ft

TAF: LFRQ 231700Z 2318/2403 26012KT 9999 BKN020

Observations et prévisions météorologiques de plus de 4000 aéroports (messages METAR et TAF).

Les stations disponibles sont représentées par des disques jaunes et rouges sur la carte.

Passer la souris dessus pour voir le nom de la station.

Cliquer dessus pour voir les observations et prévisions météorologiques.

Pour changer de carte: cliquez sur les boutons verts avec une croix noire pour zoomer, sur le bouton vert avec un tiret pour effectuer un zoom arrière, ou sur les flèches vertes pour les cartes adjacentes.


METAR-TAF: